Time;durP1;ratioP1;P1;durP2;ratioP2;P2;SDS_P1;SDS_P2;PMS_P1;PMS_P2;Temp;Humidity;BMP_temperature;BMP_pressure;BME280_temperature;BME280_humidity;BME280_pressure;Samples;Min_cycle;Max_cycle;Signal;HPM_P1;HPM_P2
2021/10/20 00:00:46;;;;;;;7.60;3.70;;;;;;;;;;5110953;28;20935;-80
2021/10/20 00:03:14;;;;;;;5.80;3.60;;;;;;;;;;5112706;28;20469;-80
2021/10/20 00:05:41;;;;;;;6.23;3.73;;;;;;;;;;5108485;28;20467;-80
2021/10/20 00:08:08;;;;;;;4.70;3.60;;;;;;;;;;5101643;28;20828;-80
2021/10/20 00:10:37;;;;;;;7.17;3.97;;;;;;;;;;5103039;27;20439;-79
2021/10/20 00:13:05;;;;;;;5.03;3.70;;;;;;;;;;5118316;27;20473;-80
2021/10/20 00:15:32;;;;;;;5.70;3.90;;;;;;;;;;5115233;27;20449;-79
2021/10/20 00:18:00;;;;;;;7.40;3.67;;;;;;;;;;5105482;28;20466;-79
2021/10/20 00:20:27;;;;;;;4.70;3.30;;;;;;;;;;5091881;28;20566;-79
2021/10/20 00:22:55;;;;;;;4.67;3.57;;;;;;;;;;5110076;28;20519;-78
2021/10/20 00:25:23;;;;;;;3.77;3.43;;;;;;;;;;5102788;28;20921;-79
2021/10/20 00:27:51;;;;;;;3.87;3.50;;;;;;;;;;5105044;27;20473;-80
2021/10/20 00:30:19;;;;;;;3.80;3.50;;;;;;;;;;5117353;27;20446;-81
2021/10/20 00:32:46;;;;;;;4.53;3.87;;;;;;;;;;5105354;28;20466;-79
2021/10/20 00:35:16;;;;;;;4.33;3.57;;;;;;;;;;5090780;28;20450;-79
2021/10/20 00:37:44;;;;;;;3.80;3.47;;;;;;;;;;5106405;28;20771;-79
2021/10/20 00:40:11;;;;;;;4.97;3.67;;;;;;;;;;5112660;28;20445;-79
2021/10/20 00:42:39;;;;;;;3.90;3.53;;;;;;;;;;5095284;28;20451;-80
2021/10/20 00:45:08;;;;;;;4.83;3.50;;;;;;;;;;5093788;28;20485;-79
2021/10/20 00:47:36;;;;;;;5.83;3.80;;;;;;;;;;5114145;28;20417;-80
2021/10/20 00:50:24;;;;;;;4.80;3.40;;;;;;;;;;5118522;27;20948;-79
2021/10/20 00:52:53;;;;;;;4.80;3.70;;;;;;;;;;5101974;27;20515;-79
2021/10/20 00:55:20;;;;;;;3.37;3.07;;;;;;;;;;5111438;28;20489;-79
2021/10/20 00:57:48;;;;;;;5.10;3.50;;;;;;;;;;5110081;28;20454;-79
2021/10/20 01:00:17;;;;;;;3.87;3.53;;;;;;;;;;5092935;28;20793;-79
2021/10/20 01:02:44;;;;;;;5.30;4.00;;;;;;;;;;5090884;28;20663;-79
2021/10/20 01:05:13;;;;;;;4.20;3.60;;;;;;;;;;5092774;28;20569;-81
2021/10/20 01:07:40;;;;;;;7.20;3.77;;;;;;;;;;5093646;28;20526;-80
2021/10/20 01:10:09;;;;;;;4.33;3.93;;;;;;;;;;5101129;28;20531;-80
2021/10/20 01:12:37;;;;;;;8.10;4.37;;;;;;;;;;5111019;27;21005;-79
2021/10/20 01:15:05;;;;;;;5.13;4.63;;;;;;;;;;5100324;27;20463;-78
2021/10/20 01:17:32;;;;;;;5.33;4.50;;;;;;;;;;5090314;28;20572;-81
2021/10/20 01:20:00;;;;;;;9.07;4.00;;;;;;;;;;5111358;28;20441;-79
2021/10/20 01:22:29;;;;;;;6.33;4.30;;;;;;;;;;5102337;28;20474;-82
2021/10/20 01:24:56;;;;;;;4.57;3.70;;;;;;;;;;5103844;28;20489;-79
2021/10/20 01:27:24;;;;;;;5.90;4.37;;;;;;;;;;5114123;27;20430;-79
2021/10/20 01:29:51;;;;;;;5.00;4.03;;;;;;;;;;5118271;27;20458;-80
2021/10/20 01:32:18;;;;;;;6.30;4.40;;;;;;;;;;5103458;28;20986;-78
2021/10/20 01:34:46;;;;;;;7.50;4.23;;;;;;;;;;5089510;28;20455;-80
2021/10/20 01:37:13;;;;;;;6.00;4.63;;;;;;;;;;5105051;28;20795;-81
2021/10/20 01:39:42;;;;;;;4.87;4.07;;;;;;;;;;5089637;28;20451;-79
2021/10/20 01:42:09;;;;;;;6.93;4.50;;;;;;;;;;5100182;27;20461;-81
2021/10/20 01:44:39;;;;;;;5.40;4.70;;;;;;;;;;5117951;27;20481;-80
2021/10/20 01:47:07;;;;;;;6.03;4.70;;;;;;;;;;5108896;28;20496;-79
2021/10/20 01:49:34;;;;;;;4.80;4.20;;;;;;;;;;5094062;28;20457;-80
2021/10/20 01:52:01;;;;;;;5.20;4.27;;;;;;;;;;5110838;28;20541;-79
2021/10/20 01:54:29;;;;;;;6.83;4.13;;;;;;;;;;5108774;28;20484;-79
2021/10/20 01:56:57;;;;;;;4.37;3.97;;;;;;;;;;5094148;28;20795;-80
2021/10/20 01:59:24;;;;;;;4.87;4.37;;;;;;;;;;5113476;27;20839;-80
2021/10/20 02:01:52;;;;;;;5.53;4.87;;;;;;;;;;5110953;27;20449;-79
2021/10/20 02:04:19;;;;;;;5.03;4.23;;;;;;;;;;5110110;28;20468;-79
2021/10/20 02:06:46;;;;;;;4.90;4.23;;;;;;;;;;5108552;28;20463;-80
2021/10/20 02:09:14;;;;;;;5.37;4.60;;;;;;;;;;5110785;28;20812;-80
2021/10/20 02:11:42;;;;;;;4.77;4.20;;;;;;;;;;5104692;28;20459;-79
2021/10/20 02:14:12;;;;;;;6.30;4.67;;;;;;;;;;5107852;27;20469;-80
2021/10/20 02:16:46;;;;;;;4.87;3.80;;;;;;;;;;5117001;27;20437;-80
2021/10/20 02:19:13;;;;;;;3.90;3.50;;;;;;;;;;5089632;28;20452;-80
2021/10/20 02:21:40;;;;;;;5.97;4.30;;;;;;;;;;5089931;28;20452;-79
2021/10/20 02:24:07;;;;;;;4.50;3.83;;;;;;;;;;5089530;28;20491;-79
2021/10/20 02:26:35;;;;;;;6.23;4.33;;;;;;;;;;5090186;28;20478;-79
2021/10/20 02:29:02;;;;;;;5.33;4.50;;;;;;;;;;5108691;28;20542;-80
2021/10/20 02:31:33;;;;;;;4.73;3.80;;;;;;;;;;5116367;28;20991;-79
2021/10/20 02:34:01;;;;;;;5.40;4.17;;;;;;;;;;5111755;28;20579;-80
2021/10/20 02:36:28;;;;;;;5.07;4.13;;;;;;;;;;5104695;28;20818;-81
2021/10/20 02:38:55;;;;;;;8.17;4.20;;;;;;;;;;5090006;28;20476;-79
2021/10/20 02:41:22;;;;;;;5.53;3.57;;;;;;;;;;5089920;28;20435;-79
2021/10/20 02:43:50;;;;;;;5.33;3.70;;;;;;;;;;5096480;28;20994;-79
2021/10/20 02:46:17;;;;;;;4.80;4.10;;;;;;;;;;5116399;27;20482;-79
2021/10/20 02:48:45;;;;;;;5.13;4.33;;;;;;;;;;5100120;28;20455;-80
2021/10/20 02:51:13;;;;;;;4.37;3.97;;;;;;;;;;5090851;28;20470;-80
2021/10/20 02:53:40;;;;;;;4.33;3.93;;;;;;;;;;5090146;28;20931;-79
2021/10/20 02:56:07;;;;;;;4.73;4.00;;;;;;;;;;5089704;28;20455;-79
2021/10/20 02:58:34;;;;;;;5.13;4.30;;;;;;;;;;5088254;28;21061;-78
2021/10/20 03:01:01;;;;;;;5.27;4.77;;;;;;;;;;5108217;28;20463;-79
2021/10/20 03:03:29;;;;;;;4.93;4.43;;;;;;;;;;5113026;28;20475;-81
2021/10/20 03:05:57;;;;;;;4.63;4.17;;;;;;;;;;5129913;27;20570;-78
2021/10/20 03:08:25;;;;;;;5.60;3.37;;;;;;;;;;5122700;27;20874;-80
2021/10/20 03:10:52;;;;;;;5.10;4.13;;;;;;;;;;5110087;28;20474;-79
2021/10/20 03:13:19;;;;;;;4.47;3.90;;;;;;;;;;5106684;28;20981;-79
2021/10/20 03:15:49;;;;;;;4.67;3.83;;;;;;;;;;5115603;28;20450;-80
2021/10/20 03:18:16;;;;;;;4.93;4.37;;;;;;;;;;5120381;28;20485;-79
2021/10/20 03:20:43;;;;;;;5.10;4.07;;;;;;;;;;5098696;27;20457;-79
2021/10/20 03:23:12;;;;;;;4.80;4.00;;;;;;;;;;5109802;28;20451;-79
2021/10/20 03:25:39;;;;;;;6.10;4.50;;;;;;;;;;5107072;28;20537;-78
2021/10/20 03:28:06;;;;;;;4.30;3.90;;;;;;;;;;5095524;28;20458;-80
2021/10/20 03:30:33;;;;;;;5.00;4.30;;;;;;;;;;5115422;27;20440;-79
2021/10/20 03:33:00;;;;;;;6.00;4.30;;;;;;;;;;5120193;27;20809;-79
2021/10/20 03:35:28;;;;;;;3.90;3.60;;;;;;;;;;5105201;28;20474;-80
2021/10/20 03:37:55;;;;;;;4.80;4.30;;;;;;;;;;5093578;28;20463;-81
2021/10/20 03:40:23;;;;;;;6.97;4.60;;;;;;;;;;5113478;28;21037;-79
2021/10/20 03:42:51;;;;;;;4.40;4.00;;;;;;;;;;5113880;28;20461;-78
2021/10/20 03:45:18;;;;;;;6.17;4.07;;;;;;;;;;5094254;28;20492;-79
2021/10/20 03:47:46;;;;;;;4.80;3.87;;;;;;;;;;5113976;28;20442;-80
2021/10/20 03:50:14;;;;;;;4.60;3.90;;;;;;;;;;5115337;28;20472;-80
2021/10/20 03:52:41;;;;;;;5.20;3.90;;;;;;;;;;5110187;27;20926;-78
2021/10/20 03:55:09;;;;;;;5.10;3.70;;;;;;;;;;5114044;27;20460;-80
2021/10/20 03:57:38;;;;;;;4.70;3.63;;;;;;;;;;5090566;28;20555;-80
2021/10/20 04:00:06;;;;;;;3.80;3.40;;;;;;;;;;5091178;28;20804;-80
2021/10/20 04:02:33;;;;;;;4.90;4.13;;;;;;;;;;5093634;28;20462;-78
2021/10/20 04:05:01;;;;;;;5.00;4.10;;;;;;;;;;5113118;28;20525;-80
2021/10/20 04:07:28;;;;;;;5.67;4.33;;;;;;;;;;5095433;28;20463;-78
2021/10/20 04:09:55;;;;;;;5.30;3.60;;;;;;;;;;5093430;28;20446;-79
2021/10/20 04:12:22;;;;;;;4.70;4.10;;;;;;;;;;5112997;28;20477;-80
2021/10/20 04:14:51;;;;;;;5.10;4.60;;;;;;;;;;5119305;27;20439;-79
2021/10/20 04:17:18;;;;;;;5.30;4.50;;;;;;;;;;5119580;27;20443;-81
2021/10/20 04:19:45;;;;;;;5.13;4.03;;;;;;;;;;5132501;27;20444;-79
2021/10/20 04:22:13;;;;;;;8.97;5.20;;;;;;;;;;5113092;27;20472;-79
2021/10/20 04:24:40;;;;;;;5.23;4.50;;;;;;;;;;5091664;28;20479;-79
2021/10/20 04:27:07;;;;;;;5.03;3.90;;;;;;;;;;5097396;28;20492;-78
2021/10/20 04:29:34;;;;;;;4.30;3.93;;;;;;;;;;5096066;27;20456;-79
2021/10/20 04:32:03;;;;;;;6.63;3.87;;;;;;;;;;5118700;27;21104;-79
2021/10/20 04:34:30;;;;;;;4.10;3.60;;;;;;;;;;5123143;27;20469;-78
2021/10/20 04:36:58;;;;;;;6.53;4.07;;;;;;;;;;5132127;27;20798;-79
2021/10/20 04:39:25;;;;;;;4.93;3.83;;;;;;;;;;5092126;27;20466;-80
2021/10/20 04:41:52;;;;;;;6.83;4.20;;;;;;;;;;5112026;28;20907;-79
2021/10/20 04:44:19;;;;;;;5.00;4.03;;;;;;;;;;5108992;28;20478;-79
2021/10/20 04:46:47;;;;;;;5.80;4.37;;;;;;;;;;5105530;27;20516;-80
2021/10/20 04:49:15;;;;;;;7.17;4.33;;;;;;;;;;5120424;27;20441;-79
2021/10/20 04:51:42;;;;;;;5.50;4.17;;;;;;;;;;5109271;27;20458;-79
2021/10/20 04:54:09;;;;;;;4.43;4.03;;;;;;;;;;5091125;28;20471;-81
2021/10/20 04:56:37;;;;;;;4.80;4.40;;;;;;;;;;5091264;28;20438;-78
2021/10/20 04:59:04;;;;;;;5.57;3.70;;;;;;;;;;5090892;28;20462;-78
2021/10/20 05:01:31;;;;;;;4.90;4.10;;;;;;;;;;5093750;27;20981;-80
2021/10/20 05:03:58;;;;;;;5.23;4.73;;;;;;;;;;5119200;27;20822;-79
2021/10/20 05:06:27;;;;;;;6.57;4.20;;;;;;;;;;5124219;27;20932;-79
2021/10/20 05:08:54;;;;;;;4.77;4.27;;;;;;;;;;5111363;27;20457;-79
2021/10/20 05:11:21;;;;;;;7.67;4.33;;;;;;;;;;5111187;28;20434;-78
2021/10/20 05:13:49;;;;;;;5.63;4.37;;;;;;;;;;5096847;28;20637;-77
2021/10/20 05:16:16;;;;;;;5.10;4.60;;;;;;;;;;5096420;27;20462;-78
2021/10/20 05:18:43;;;;;;;5.70;4.87;;;;;;;;;;5119223;27;20434;-79
2021/10/20 05:21:10;;;;;;;6.00;5.00;;;;;;;;;;5123503;27;20456;-82
2021/10/20 05:23:39;;;;;;;5.40;4.87;;;;;;;;;;5131563;27;20828;-79
2021/10/20 05:26:06;;;;;;;5.63;4.90;;;;;;;;;;5099584;27;20477;-79
2021/10/20 05:28:33;;;;;;;7.10;4.90;;;;;;;;;;5109016;28;20473;-80
2021/10/20 05:31:01;;;;;;;7.13;4.40;;;;;;;;;;5108724;27;20463;-79
2021/10/20 05:33:28;;;;;;;6.60;4.10;;;;;;;;;;5117562;27;20477;-79
2021/10/20 05:35:55;;;;;;;4.53;4.13;;;;;;;;;;5115797;27;20544;-80
2021/10/20 05:38:22;;;;;;;5.50;4.60;;;;;;;;;;5102764;28;20456;-80
2021/10/20 05:40:51;;;;;;;8.30;4.73;;;;;;;;;;5110943;28;20440;-80
2021/10/20 05:43:19;;;;;;;6.10;4.70;;;;;;;;;;5109069;28;20465;-80
2021/10/20 05:45:46;;;;;;;4.80;4.27;;;;;;;;;;5106298;28;20993;-80
2021/10/20 05:48:14;;;;;;;7.27;4.87;;;;;;;;;;5092833;28;20439;-81
2021/10/20 05:50:42;;;;;;;5.40;4.80;;;;;;;;;;5092477;28;20452;-80
2021/10/20 05:53:09;;;;;;;6.30;5.17;;;;;;;;;;5102398;27;20474;-80
2021/10/20 05:55:40;;;;;;;5.30;4.80;;;;;;;;;;5118816;27;20425;-81
2021/10/20 05:58:11;;;;;;;7.83;5.03;;;;;;;;;;5097568;27;20458;-80
2021/10/20 06:00:39;;;;;;;8.33;4.90;;;;;;;;;;5102691;28;20452;-79
2021/10/20 06:03:07;;;;;;;6.73;5.67;;;;;;;;;;5090681;28;20459;-79
2021/10/20 06:05:36;;;;;;;5.17;4.67;;;;;;;;;;5099162;28;21126;-80
2021/10/20 06:08:03;;;;;;;5.93;4.33;;;;;;;;;;5091820;28;20486;-78
2021/10/20 06:10:30;;;;;;;6.97;4.37;;;;;;;;;;5092460;28;20439;-80
2021/10/20 06:12:58;;;;;;;7.20;5.40;;;;;;;;;;5092347;28;20847;-79
2021/10/20 06:15:26;;;;;;;6.50;5.67;;;;;;;;;;5097235;28;20438;-80
2021/10/20 06:17:53;;;;;;;6.60;4.77;;;;;;;;;;5118827;27;20792;-78
2021/10/20 06:20:21;;;;;;;7.10;4.73;;;;;;;;;;5112288;27;20473;-77
2021/10/20 06:22:48;;;;;;;6.00;5.03;;;;;;;;;;5110493;28;20465;-78
2021/10/20 06:25:15;;;;;;;5.63;4.90;;;;;;;;;;5095231;28;20486;-79
2021/10/20 06:27:43;;;;;;;8.90;5.40;;;;;;;;;;5105508;28;20833;-80
2021/10/20 06:30:11;;;;;;;6.27;5.30;;;;;;;;;;5104948;28;20459;-79
2021/10/20 06:32:44;;;;;;;5.70;5.10;;;;;;;;;;5115142;27;20453;-78
2021/10/20 06:35:12;;;;;;;5.83;5.00;;;;;;;;;;5121736;27;20536;-80
2021/10/20 06:37:39;;;;;;;5.30;4.50;;;;;;;;;;5104565;27;20835;-78
2021/10/20 06:40:07;;;;;;;5.43;4.90;;;;;;;;;;5088200;28;20454;-79
2021/10/20 06:42:34;;;;;;;5.70;5.20;;;;;;;;;;5099608;28;20465;-80
2021/10/20 06:45:03;;;;;;;5.97;4.73;;;;;;;;;;5106264;28;20451;-79
2021/10/20 06:47:30;;;;;;;9.47;5.90;;;;;;;;;;5107394;28;20489;-80
2021/10/20 06:49:59;;;;;;;6.73;5.03;;;;;;;;;;5118325;28;20800;-78
2021/10/20 06:52:26;;;;;;;6.00;5.40;;;;;;;;;;5111386;28;20860;-79
2021/10/20 06:54:54;;;;;;;6.70;4.80;;;;;;;;;;5110287;28;20694;-79
2021/10/20 06:57:21;;;;;;;5.90;5.30;;;;;;;;;;5101683;28;20502;-80
2021/10/20 06:59:48;;;;;;;6.60;5.43;;;;;;;;;;5090679;28;20840;-78
2021/10/20 07:02:18;;;;;;;5.83;5.20;;;;;;;;;;5094564;28;20459;-78
2021/10/20 07:04:50;;;;;;;7.83;4.97;;;;;;;;;;5117732;27;20436;-81
2021/10/20 07:07:19;;;;;;;6.10;4.50;;;;;;;;;;5115744;27;20490;-79
2021/10/20 07:09:46;;;;;;;8.10;5.40;;;;;;;;;;5091797;28;20891;-79
2021/10/20 07:12:16;;;;;;;5.90;4.23;;;;;;;;;;5091881;28;20475;-77
2021/10/20 07:14:43;;;;;;;6.23;4.80;;;;;;;;;;5092342;28;20513;-79
2021/10/20 07:17:10;;;;;;;5.30;4.47;;;;;;;;;;5092659;28;20490;-79
2021/10/20 07:19:48;;;;;;;5.53;5.00;;;;;;;;;;5113981;27;20480;-78
2021/10/20 07:22:15;;;;;;;5.70;5.00;;;;;;;;;;5121500;27;21075;-78
2021/10/20 07:24:44;;;;;;;6.33;4.83;;;;;;;;;;5095997;28;20497;-80
2021/10/20 07:27:11;;;;;;;6.80;4.83;;;;;;;;;;5104079;28;20474;-79
2021/10/20 07:29:40;;;;;;;5.40;4.90;;;;;;;;;;5096621;28;20435;-79
2021/10/20 07:32:08;;;;;;;5.20;4.70;;;;;;;;;;5109931;28;20816;-79
2021/10/20 07:34:35;;;;;;;5.50;4.50;;;;;;;;;;5107126;27;20521;-78
2021/10/20 07:37:02;;;;;;;5.67;4.83;;;;;;;;;;5119646;27;20461;-82
2021/10/20 07:39:43;;;;;;;7.23;4.63;;;;;;;;;;5112905;27;20804;-78
2021/10/20 07:42:12;;;;;;;5.50;4.97;;;;;;;;;;5097227;28;20508;-79
2021/10/20 07:44:44;;;;;;;5.53;4.50;;;;;;;;;;5114318;28;20437;-80
2021/10/20 07:47:16;;;;;;;5.10;4.60;;;;;;;;;;5096248;28;20446;-83
2021/10/20 07:49:44;;;;;;;5.20;4.70;;;;;;;;;;5108699;28;20875;-80
2021/10/20 07:52:24;;;;;;;5.20;4.37;;;;;;;;;;5115592;28;20508;-80
2021/10/20 07:54:52;;;;;;;7.47;5.10;;;;;;;;;;5104620;28;20553;-79
2021/10/20 07:57:20;;;;;;;6.13;4.73;;;;;;;;;;5118274;27;20434;-80
2021/10/20 07:59:48;;;;;;;5.27;4.77;;;;;;;;;;5118553;27;20525;-80
2021/10/20 08:02:29;;;;;;;4.90;4.43;;;;;;;;;;5107349;27;21012;-80
2021/10/20 08:04:56;;;;;;;5.30;4.30;;;;;;;;;;5094204;28;20447;-77
2021/10/20 08:07:34;;;;;;;4.90;4.27;;;;;;;;;;5104196;28;20482;-79
2021/10/20 08:10:03;;;;;;;4.43;4.03;;;;;;;;;;5108814;28;20476;-81
2021/10/20 08:12:34;;;;;;;7.93;4.23;;;;;;;;;;5095894;28;21203;-81
2021/10/20 08:15:06;;;;;;;6.40;5.20;;;;;;;;;;5105104;28;20535;-80
2021/10/20 08:17:56;;;;;;;4.87;4.37;;;;;;;;;;5114007;28;20462;-80
2021/10/20 08:23:25;;;;;;;6.63;4.43;;;;;;;;;;5105046;27;20433;-78
2021/10/20 08:25:53;;;;;;;4.63;4.20;;;;;;;;;;5112739;28;20501;-80
2021/10/20 08:28:21;;;;;;;5.93;4.10;;;;;;;;;;5101795;28;20483;-80
2021/10/20 08:30:48;;;;;;;5.70;4.57;;;;;;;;;;5091789;28;20816;-79
2021/10/20 08:33:16;;;;;;;4.60;4.20;;;;;;;;;;5091836;28;20453;-80
2021/10/20 08:35:43;;;;;;;9.80;4.50;;;;;;;;;;5112924;27;20432;-78
2021/10/20 08:38:11;;;;;;;5.23;4.30;;;;;;;;;;5118448;27;20951;-77
2021/10/20 08:40:39;;;;;;;7.93;4.40;;;;;;;;;;5112979;27;20923;-80
2021/10/20 08:43:08;;;;;;;5.13;4.40;;;;;;;;;;5113172;28;20465;-80
2021/10/20 08:45:37;;;;;;;5.93;5.13;;;;;;;;;;5096076;28;20452;-80
2021/10/20 08:48:04;;;;;;;4.87;4.40;;;;;;;;;;5105736;28;20875;-81
2021/10/20 08:50:33;;;;;;;4.40;3.93;;;;;;;;;;5099318;28;20894;-78
2021/10/20 08:53:01;;;;;;;4.70;4.17;;;;;;;;;;5100127;27;20863;-80
2021/10/20 08:55:28;;;;;;;6.67;5.77;;;;;;;;;;5107636;27;20409;-79
2021/10/20 08:57:57;;;;;;;9.97;4.67;;;;;;;;;;5111079;28;20441;-77
2021/10/20 09:00:39;;;;;;;5.20;4.30;;;;;;;;;;5104250;28;20525;-79
2021/10/20 09:03:08;;;;;;;6.17;4.40;;;;;;;;;;5091798;28;20467;-79
2021/10/20 09:05:35;;;;;;;5.77;4.70;;;;;;;;;;5092420;28;20518;-78
2021/10/20 09:08:02;;;;;;;5.80;4.70;;;;;;;;;;5092819;27;20497;-78
2021/10/20 09:10:31;;;;;;;4.40;4.00;;;;;;;;;;5112259;27;20532;-82
2021/10/20 09:12:58;;;;;;;4.80;4.10;;;;;;;;;;5126919;27;20524;-78
2021/10/20 09:15:26;;;;;;;5.17;4.67;;;;;;;;;;5099967;27;20448;-83
2021/10/20 09:17:58;;;;;;;24.57;7.40;;;;;;;;;;5095797;28;20451;-77
2021/10/20 09:20:28;;;;;;;27.20;5.43;;;;;;;;;;5099269;28;20473;-83
2021/10/20 09:22:57;;;;;;;9.40;5.40;;;;;;;;;;5105726;28;20518;-78
2021/10/20 09:25:24;;;;;;;5.07;4.57;;;;;;;;;;5109448;27;20854;-83
2021/10/20 09:27:52;;;;;;;7.80;5.40;;;;;;;;;;5112621;27;20548;-85
2021/10/20 09:30:20;;;;;;;5.83;4.63;;;;;;;;;;5088700;28;20471;-81
2021/10/20 09:32:48;;;;;;;6.00;4.70;;;;;;;;;;5093563;28;20498;-81
2021/10/20 09:35:15;;;;;;;5.77;4.77;;;;;;;;;;5092225;28;20469;-81
2021/10/20 09:37:44;;;;;;;4.60;4.20;;;;;;;;;;5091910;28;20448;-80
2021/10/20 09:40:13;;;;;;;9.40;5.77;;;;;;;;;;5096352;27;20437;-80
2021/10/20 09:42:45;;;;;;;7.13;5.27;;;;;;;;;;5105892;27;20446;-79
2021/10/20 09:45:14;;;;;;;6.67;5.00;;;;;;;;;;5091273;28;20460;-78
2021/10/20 09:47:41;;;;;;;7.33;4.67;;;;;;;;;;5105228;28;20452;-85
2021/10/20 09:50:08;;;;;;;5.93;4.60;;;;;;;;;;5106906;28;20459;-81
2021/10/20 09:52:46;;;;;;;6.60;5.40;;;;;;;;;;5090991;28;20440;-79
2021/10/20 09:55:14;;;;;;;6.00;5.00;;;;;;;;;;5091269;28;20789;-78
2021/10/20 09:57:41;;;;;;;6.03;5.37;;;;;;;;;;5113782;27;20790;-82
2021/10/20 10:00:09;;;;;;;5.63;5.10;;;;;;;;;;5117752;27;20407;-83
2021/10/20 10:02:37;;;;;;;10.20;4.87;;;;;;;;;;5108098;28;20442;-84
2021/10/20 10:05:04;;;;;;;6.87;5.00;;;;;;;;;;5111563;28;20947;-83
2021/10/20 10:07:31;;;;;;;5.90;5.30;;;;;;;;;;5103377;28;20546;-80
2021/10/20 10:10:00;;;;;;;6.90;5.17;;;;;;;;;;5091866;28;20547;-78
2021/10/20 10:12:29;;;;;;;5.60;5.00;;;;;;;;;;5101114;27;20452;-81
2021/10/20 10:14:58;;;;;;;6.13;5.27;;;;;;;;;;5115743;27;20997;-82
2021/10/20 10:17:26;;;;;;;6.03;5.43;;;;;;;;;;5114223;27;20407;-78
2021/10/20 10:19:53;;;;;;;5.67;5.00;;;;;;;;;;5104568;28;20512;-82
2021/10/20 10:22:22;;;;;;;5.50;4.60;;;;;;;;;;5105723;28;20446;-78
2021/10/20 10:24:49;;;;;;;5.53;5.03;;;;;;;;;;5109881;28;20907;-80
2021/10/20 10:27:18;;;;;;;6.93;4.90;;;;;;;;;;5102112;28;20772;-85
2021/10/20 10:29:50;;;;;;;10.00;5.60;;;;;;;;;;5107977;28;20874;-79
2021/10/20 10:32:19;;;;;;;6.00;5.50;;;;;;;;;;5093378;28;20455;-78
2021/10/20 10:34:47;;;;;;;5.87;5.27;;;;;;;;;;5092902;28;20776;-84
2021/10/20 10:37:23;;;;;;;7.00;6.00;;;;;;;;;;5119535;27;20468;-79
2021/10/20 10:39:50;;;;;;;7.40;5.37;;;;;;;;;;5113194;28;20452;-84
2021/10/20 10:42:19;;;;;;;6.30;5.70;;;;;;;;;;5099260;28;20433;-82
2021/10/20 10:44:47;;;;;;;6.37;5.03;;;;;;;;;;5093853;28;20449;-82
2021/10/20 10:47:19;;;;;;;6.30;5.70;;;;;;;;;;5094523;28;20796;-85
2021/10/20 10:49:52;;;;;;;8.70;5.60;;;;;;;;;;5096426;28;20441;-83
2021/10/20 10:52:21;;;;;;;6.10;5.50;;;;;;;;;;5098960;28;20421;-89
2021/10/20 10:54:57;;;;;;;6.83;5.60;;;;;;;;;;5095375;28;20901;-79
2021/10/20 10:57:37;;;;;;;5.20;4.70;;;;;;;;;;5100777;27;20828;-79
2021/10/20 11:00:06;;;;;;;5.57;5.07;;;;;;;;;;5117416;27;20522;-87
2021/10/20 11:02:38;;;;;;;5.77;4.73;;;;;;;;;;5113774;27;20469;-78
2021/10/20 11:05:06;;;;;;;6.50;4.90;;;;;;;;;;5090999;28;20428;-79
2021/10/20 11:07:34;;;;;;;5.60;5.00;;;;;;;;;;5093901;28;20457;-80
2021/10/20 11:10:02;;;;;;;5.57;5.07;;;;;;;;;;5090806;28;20773;-81
2021/10/20 11:12:30;;;;;;;6.33;5.50;;;;;;;;;;5093822;28;20531;-80
2021/10/20 11:14:58;;;;;;;6.23;5.53;;;;;;;;;;5090577;28;20467;-82
2021/10/20 11:17:25;;;;;;;7.27;5.67;;;;;;;;;;5105085;27;20431;-79
2021/10/20 11:19:53;;;;;;;5.93;5.33;;;;;;;;;;5113316;27;21142;-81
2021/10/20 11:22:21;;;;;;;5.70;4.97;;;;;;;;;;5098461;28;21200;-80
2021/10/20 11:25:29;;;;;;;6.57;5.47;;;;;;;;;;5107057;28;20513;-79
2021/10/20 11:27:58;;;;;;;6.03;5.43;;;;;;;;;;5112944;28;20547;-81
2021/10/20 11:30:26;;;;;;;7.87;5.40;;;;;;;;;;5104318;28;20446;-81
2021/10/20 11:32:55;;;;;;;5.80;5.10;;;;;;;;;;5105619;27;20568;-80
2021/10/20 11:35:22;;;;;;;6.10;5.50;;;;;;;;;;5113902;27;20463;-79
2021/10/20 11:37:53;;;;;;;7.63;5.80;;;;;;;;;;5097993;27;20882;-83
2021/10/20 11:40:21;;;;;;;7.00;5.37;;;;;;;;;;5102219;28;20465;-80
2021/10/20 11:42:48;;;;;;;15.73;5.93;;;;;;;;;;5095841;28;20824;-79
2021/10/20 11:45:18;;;;;;;7.40;5.50;;;;;;;;;;5089638;28;20963;-79
2021/10/20 11:47:45;;;;;;;6.50;5.60;;;;;;;;;;5101228;27;20617;-81
2021/10/20 11:50:20;;;;;;;5.50;5.00;;;;;;;;;;5118680;27;20808;-80
2021/10/20 11:52:58;;;;;;;7.17;5.80;;;;;;;;;;5105642;28;20480;-79
2021/10/20 11:55:25;;;;;;;6.10;5.50;;;;;;;;;;5089253;28;20539;-77
2021/10/20 11:57:52;;;;;;;8.27;5.63;;;;;;;;;;5101201;28;20814;-80
2021/10/20 12:00:21;;;;;;;6.20;5.17;;;;;;;;;;5106010;28;20732;-81
2021/10/20 12:02:55;;;;;;;8.00;5.33;;;;;;;;;;5102479;27;20482;-80
2021/10/20 12:05:22;;;;;;;5.20;4.23;;;;;;;;;;5116807;27;20442;-80
2021/10/20 12:07:50;;;;;;;6.80;6.10;;;;;;;;;;5113273;27;20803;-78
2021/10/20 12:10:19;;;;;;;7.00;5.27;;;;;;;;;;5097248;28;20470;-79
2021/10/20 12:12:49;;;;;;;5.20;4.50;;;;;;;;;;5095867;28;20471;-84
2021/10/20 12:15:17;;;;;;;7.30;5.00;;;;;;;;;;5094289;28;20783;-82
2021/10/20 12:17:47;;;;;;;6.00;4.83;;;;;;;;;;5098668;27;20558;-83
2021/10/20 12:20:15;;;;;;;7.27;5.10;;;;;;;;;;5120015;27;20438;-82
2021/10/20 12:22:42;;;;;;;4.43;4.03;;;;;;;;;;5118253;27;20966;-78
2021/10/20 12:25:10;;;;;;;4.83;4.33;;;;;;;;;;5132730;27;20477;-85
2021/10/20 12:27:39;;;;;;;4.70;4.20;;;;;;;;;;5095162;27;20487;-79
2021/10/20 12:30:08;;;;;;;6.37;4.80;;;;;;;;;;5092164;28;20843;-82
2021/10/20 12:32:36;;;;;;;5.03;4.63;;;;;;;;;;5094574;28;20459;-81
2021/10/20 12:35:06;;;;;;;5.70;5.10;;;;;;;;;;5095144;28;20479;-80
2021/10/20 12:37:34;;;;;;;6.20;5.00;;;;;;;;;;5092986;28;20454;-83
2021/10/20 12:40:07;;;;;;;5.43;4.93;;;;;;;;;;5093048;28;20444;-81
2021/10/20 12:42:39;;;;;;;5.73;4.57;;;;;;;;;;5121924;27;20442;-83
2021/10/20 12:45:08;;;;;;;7.27;4.77;;;;;;;;;;5124346;27;20786;-83
2021/10/20 12:47:39;;;;;;;5.03;4.53;;;;;;;;;;5111932;27;20946;-83
2021/10/20 12:50:08;;;;;;;5.20;4.50;;;;;;;;;;5111152;28;20828;-80
2021/10/20 12:52:37;;;;;;;4.50;4.07;;;;;;;;;;5092335;28;20449;-81
2021/10/20 12:55:05;;;;;;;5.00;4.53;;;;;;;;;;5092871;28;20815;-80
2021/10/20 12:57:33;;;;;;;5.30;4.70;;;;;;;;;;5113334;28;20894;-83
2021/10/20 13:00:04;;;;;;;6.37;4.40;;;;;;;;;;5098173;28;20454;-80
2021/10/20 13:02:31;;;;;;;4.40;4.00;;;;;;;;;;5096173;27;20458;-80
2021/10/20 13:04:59;;;;;;;6.07;4.30;;;;;;;;;;5122063;27;20664;-80
2021/10/20 13:07:28;;;;;;;5.00;4.53;;;;;;;;;;5117670;27;20446;-79
2021/10/20 13:09:55;;;;;;;5.77;4.73;;;;;;;;;;5111971;28;20497;-83
2021/10/20 13:12:23;;;;;;;5.17;4.63;;;;;;;;;;5092976;28;20445;-84
2021/10/20 13:14:50;;;;;;;5.57;4.60;;;;;;;;;;5095292;28;20813;-80
2021/10/20 13:17:17;;;;;;;5.13;4.40;;;;;;;;;;5091441;28;20469;-84
2021/10/20 13:19:44;;;;;;;4.90;4.40;;;;;;;;;;5102061;27;20844;-82
2021/10/20 13:22:14;;;;;;;6.03;4.20;;;;;;;;;;5119978;27;20430;-83
2021/10/20 13:24:43;;;;;;;6.50;4.30;;;;;;;;;;5119841;27;21069;-85
2021/10/20 13:27:10;;;;;;;4.50;4.03;;;;;;;;;;5109045;28;20435;-78
2021/10/20 13:29:37;;;;;;;6.63;4.43;;;;;;;;;;5091795;28;20477;-82
2021/10/20 13:32:05;;;;;;;4.10;3.70;;;;;;;;;;5096353;28;20454;-81
2021/10/20 13:34:32;;;;;;;5.10;3.93;;;;;;;;;;5099781;28;20475;-80
2021/10/20 13:37:00;;;;;;;4.87;3.90;;;;;;;;;;5116095;27;20426;-81
2021/10/20 13:39:27;;;;;;;6.10;4.70;;;;;;;;;;5118891;27;20437;-83
2021/10/20 13:41:55;;;;;;;4.03;3.63;;;;;;;;;;5107431;27;20680;-80
2021/10/20 13:44:23;;;;;;;4.33;3.93;;;;;;;;;;5103473;28;20551;-81
2021/10/20 13:46:50;;;;;;;4.37;3.97;;;;;;;;;;5091699;28;20455;-81
2021/10/20 13:49:17;;;;;;;4.37;3.60;;;;;;;;;;5097933;28;20485;-85
2021/10/20 13:51:44;;;;;;;4.70;3.60;;;;;;;;;;5106636;27;20466;-84
2021/10/20 13:54:12;;;;;;;4.40;3.60;;;;;;;;;;5115528;27;20465;-83
2021/10/20 13:56:39;;;;;;;3.53;3.10;;;;;;;;;;5100720;27;20452;-83
2021/10/20 13:59:12;;;;;;;6.17;3.70;;;;;;;;;;5099657;28;20462;-82
2021/10/20 14:01:41;;;;;;;4.40;4.00;;;;;;;;;;5100735;28;21209;-79
2021/10/20 14:04:09;;;;;;;3.77;3.40;;;;;;;;;;5101603;28;20514;-81
2021/10/20 14:06:38;;;;;;;4.40;3.73;;;;;;;;;;5092059;28;20459;-84
2021/10/20 14:09:05;;;;;;;3.93;3.60;;;;;;;;;;5119958;27;20475;-80
2021/10/20 14:11:32;;;;;;;5.07;3.73;;;;;;;;;;5113712;27;20955;-79
2021/10/20 14:14:02;;;;;;;4.07;3.60;;;;;;;;;;5112423;28;20554;-82
2021/10/20 14:16:31;;;;;;;4.37;4.00;;;;;;;;;;5104000;28;20457;-85
2021/10/20 14:18:59;;;;;;;6.07;4.37;;;;;;;;;;5091123;28;21010;-82
2021/10/20 14:21:27;;;;;;;4.43;4.03;;;;;;;;;;5102936;28;20456;-83
2021/10/20 14:23:54;;;;;;;4.40;4.00;;;;;;;;;;5110409;27;20511;-81
2021/10/20 14:26:21;;;;;;;5.23;4.07;;;;;;;;;;5106811;28;20994;-84
2021/10/20 14:28:48;;;;;;;5.70;4.20;;;;;;;;;;5108660;28;20485;-79
2021/10/20 14:31:16;;;;;;;5.60;4.37;;;;;;;;;;5106198;28;20458;-81
2021/10/20 14:33:46;;;;;;;5.27;4.77;;;;;;;;;;5090637;28;20478;-85
2021/10/20 14:36:14;;;;;;;6.07;4.73;;;;;;;;;;5090140;28;20454;-82
2021/10/20 14:38:41;;;;;;;6.63;5.40;;;;;;;;;;5107368;28;20454;-81
2021/10/20 14:41:10;;;;;;;5.97;5.33;;;;;;;;;;5093653;28;20920;-83
2021/10/20 14:43:37;;;;;;;4.10;3.70;;;;;;;;;;5105241;28;20474;-86
2021/10/20 14:46:04;;;;;;;5.20;4.70;;;;;;;;;;5112289;28;20861;-78
2021/10/20 14:48:32;;;;;;;5.37;4.87;;;;;;;;;;5112306;28;20525;-80
2021/10/20 14:51:00;;;;;;;4.70;4.30;;;;;;;;;;5090591;28;20462;-81
2021/10/20 14:53:28;;;;;;;8.30;4.67;;;;;;;;;;5089958;28;20474;-79